createdAt,value
2022-10-13T00:02:25.780Z,12.32
2022-10-13T00:05:28.303Z,8.77
2022-10-13T00:08:30.231Z,9.47
2022-10-13T00:11:32.013Z,9.27
2022-10-13T00:14:33.717Z,9.38
2022-10-13T00:17:38.657Z,10.45
2022-10-13T00:20:45.806Z,10.10
2022-10-13T00:23:47.847Z,9.35
2022-10-13T00:26:53.775Z,8.65
2022-10-13T00:29:55.601Z,7.93
2022-10-13T00:32:57.156Z,7.80
2022-10-13T00:35:58.735Z,8.20
2022-10-13T00:39:00.348Z,7.95
2022-10-13T00:42:01.985Z,8.90
2022-10-13T00:45:27.502Z,8.60
2022-10-13T00:48:30.698Z,9.32
2022-10-13T00:51:34.656Z,8.43
2022-10-13T00:54:36.322Z,8.98
2022-10-13T00:57:40.917Z,8.88
2022-10-13T01:00:48.744Z,8.63
2022-10-13T01:03:51.225Z,10.15
2022-10-13T01:06:55.016Z,10.48
2022-10-13T01:09:56.642Z,9.57
2022-10-13T01:13:14.922Z,8.73
2022-10-13T01:16:53.676Z,8.25
2022-10-13T01:20:01.248Z,8.13
2022-10-13T01:23:08.877Z,7.68
2022-10-13T01:26:38.296Z,7.47
2022-10-13T01:30:09.340Z,7.90
2022-10-13T01:33:44.269Z,6.70
2022-10-13T01:37:02.657Z,7.93
2022-10-13T01:40:21.175Z,7.05
2022-10-13T01:43:36.650Z,7.60
2022-10-13T01:46:39.019Z,7.85
2022-10-13T01:49:41.029Z,7.68
2022-10-13T01:52:42.975Z,7.43
2022-10-13T01:55:52.849Z,8.60
2022-10-13T01:58:58.578Z,8.20
2022-10-13T02:02:31.812Z,8.52
2022-10-13T02:05:39.910Z,7.90
2022-10-13T02:09:08.693Z,8.15
2022-10-13T02:12:20.185Z,8.00
2022-10-13T02:15:30.880Z,7.30
2022-10-13T02:18:36.097Z,8.43
2022-10-13T02:21:41.370Z,7.68
2022-10-13T02:24:43.026Z,7.85
2022-10-13T02:27:44.808Z,7.20
2022-10-13T02:30:47.192Z,7.53
2022-10-13T02:33:48.859Z,7.97
2022-10-13T02:36:50.502Z,8.95
2022-10-13T02:39:52.541Z,8.05
2022-10-13T02:42:54.581Z,8.50
2022-10-13T02:45:56.165Z,7.82
2022-10-13T02:48:58.013Z,8.05
2022-10-13T02:52:00.719Z,8.30
2022-10-13T02:55:02.322Z,7.05
2022-10-13T02:58:04.186Z,8.25
2022-10-13T03:01:14.122Z,7.35
2022-10-13T03:04:15.749Z,6.95
2022-10-13T03:07:17.357Z,7.30
2022-10-13T03:10:18.938Z,6.93
2022-10-13T03:13:21.165Z,7.30
2022-10-13T03:16:23.013Z,6.97
2022-10-13T03:19:25.129Z,7.72
2022-10-13T03:22:26.730Z,7.35
2022-10-13T03:25:29.036Z,7.80
2022-10-13T03:28:30.992Z,7.57
2022-10-13T03:31:32.752Z,7.53
2022-10-13T03:34:36.855Z,8.02
2022-10-13T03:37:38.661Z,7.43
2022-10-13T03:40:40.223Z,7.55
2022-10-13T03:43:43.048Z,8.50
2022-10-13T03:46:44.740Z,8.07
2022-10-13T03:49:46.375Z,7.60
2022-10-13T03:52:47.918Z,7.80
2022-10-13T03:55:54.356Z,7.40
2022-10-13T03:58:57.593Z,7.63
2022-10-13T04:05:00.725Z,7.13
2022-10-13T04:08:02.505Z,8.20
2022-10-13T04:11:10.296Z,7.10
2022-10-13T04:14:14.671Z,7.72
2022-10-13T04:17:16.294Z,8.77
2022-10-13T04:20:18.233Z,8.05
2022-10-13T04:23:19.880Z,8.07
2022-10-13T04:26:23.068Z,8.70
2022-10-13T04:29:25.097Z,7.47
2022-10-13T04:32:27.826Z,8.10
2022-10-13T04:35:29.606Z,7.90
2022-10-13T04:38:31.184Z,8.00
2022-10-13T04:41:32.729Z,7.68
2022-10-13T04:44:35.437Z,9.32
2022-10-13T04:47:39.673Z,9.45
2022-10-13T04:50:41.225Z,7.80
2022-10-13T04:53:45.139Z,8.73
2022-10-13T04:56:47.056Z,9.63
2022-10-13T04:59:48.862Z,9.50
2022-10-13T05:02:50.456Z,10.45
2022-10-13T05:05:53.152Z,11.32
2022-10-13T05:08:55.959Z,11.60
2022-10-13T05:11:57.809Z,9.57
2022-10-13T05:14:59.824Z,10.20
2022-10-13T05:18:01.396Z,8.63
2022-10-13T05:21:07.980Z,7.70
2022-10-13T05:24:13.596Z,9.32
2022-10-13T05:27:15.630Z,9.07
2022-10-13T05:30:17.331Z,9.40
2022-10-13T05:33:18.884Z,9.77
2022-10-13T05:36:23.210Z,9.48
2022-10-13T05:39:24.783Z,9.15
2022-10-13T05:42:29.417Z,9.32
2022-10-13T05:45:32.961Z,10.13
2022-10-13T05:48:35.022Z,8.93
2022-10-13T05:51:47.506Z,8.23
2022-10-13T05:54:53.277Z,8.32
2022-10-13T05:57:54.953Z,8.02
2022-10-13T06:00:57.470Z,8.47
2022-10-13T06:04:04.201Z,8.25
2022-10-13T06:07:06.431Z,10.10
2022-10-13T06:10:08.502Z,8.18
2022-10-13T06:13:11.189Z,7.00
2022-10-13T06:16:12.755Z,8.20
2022-10-13T06:19:14.360Z,9.23
2022-10-13T06:22:15.896Z,8.52
2022-10-13T06:25:19.470Z,9.88
2022-10-13T06:28:21.810Z,8.57
2022-10-13T06:31:26.123Z,8.18
2022-10-13T06:34:27.717Z,8.80
2022-10-13T06:37:29.454Z,9.10
2022-10-13T06:40:31.308Z,9.25
2022-10-13T06:43:39.706Z,8.55
2022-10-13T06:46:44.798Z,8.38
2022-10-13T06:49:46.381Z,8.93
2022-10-13T06:52:49.065Z,8.57
2022-10-13T06:55:52.633Z,8.75
2022-10-13T06:58:54.333Z,8.68
2022-10-13T07:01:55.940Z,8.95
2022-10-13T07:04:58.121Z,7.18
2022-10-13T07:07:59.995Z,8.43
2022-10-13T07:11:16.085Z,9.60
2022-10-13T07:14:23.211Z,10.32
2022-10-13T07:17:24.909Z,10.48
2022-10-13T07:20:26.723Z,9.88
2022-10-13T07:23:29.193Z,8.93
2022-10-13T07:26:33.798Z,9.10
2022-10-13T07:29:35.719Z,9.32
2022-10-13T07:32:39.061Z,19.88
2022-10-13T07:35:41.129Z,13.88
2022-10-13T07:38:42.801Z,17.10
2022-10-13T07:41:50.879Z,19.58
2022-10-13T07:44:52.837Z,10.80
2022-10-13T07:47:56.385Z,12.00
2022-10-13T07:50:58.228Z,14.52
2022-10-13T07:53:59.929Z,11.75
2022-10-13T07:57:01.463Z,9.48
2022-10-13T08:00:06.100Z,9.30
2022-10-13T08:03:13.921Z,8.73
2022-10-13T08:06:15.744Z,10.98
2022-10-13T08:09:17.369Z,11.43
2022-10-13T08:12:19.157Z,13.13
2022-10-13T08:15:21.255Z,12.75
2022-10-13T08:18:22.847Z,13.05
2022-10-13T08:21:57.037Z,12.38
2022-10-13T08:24:48.177Z,13.70
2022-10-13T08:27:51.382Z,13.25
2022-10-13T08:30:53.969Z,13.65
2022-10-13T08:33:55.790Z,10.63
2022-10-13T08:36:57.680Z,12.05
2022-10-13T08:39:59.257Z,10.43
2022-10-13T08:43:01.908Z,10.30
2022-10-13T08:46:03.903Z,20.70
2022-10-13T08:49:06.971Z,11.75
2022-10-13T08:52:22.474Z,10.50
2022-10-13T08:55:27.841Z,9.05
2022-10-13T08:58:34.401Z,11.10
2022-10-13T09:01:37.245Z,11.70
2022-10-13T09:04:42.547Z,10.10
2022-10-13T09:07:46.115Z,10.10
2022-10-13T09:10:49.751Z,10.57
2022-10-13T09:13:59.253Z,10.73
2022-10-13T09:20:27.617Z,10.70
2022-10-13T09:23:29.233Z,14.15
2022-10-13T09:26:37.742Z,12.25
2022-10-13T09:29:40.054Z,12.40
2022-10-13T09:32:42.924Z,10.10
2022-10-13T09:35:47.385Z,8.73
2022-10-13T09:39:13.824Z,9.77
2022-10-13T09:42:29.763Z,9.93
2022-10-13T09:45:35.989Z,9.98
2022-10-13T09:48:38.730Z,9.40
2022-10-13T09:51:45.364Z,9.52
2022-10-13T09:55:00.790Z,10.48
2022-10-13T09:58:33.927Z,11.95
2022-10-13T10:01:40.323Z,10.27
2022-10-13T10:04:43.440Z,11.95
2022-10-13T10:07:45.213Z,12.37
2022-10-13T10:10:47.466Z,10.95
2022-10-13T10:13:49.059Z,9.83
2022-10-13T10:17:09.494Z,9.18
2022-10-13T10:20:32.813Z,7.70
2022-10-13T10:23:37.756Z,8.02
2022-10-13T10:26:44.808Z,7.75
2022-10-13T10:30:03.639Z,9.63
2022-10-13T10:33:12.972Z,9.23
2022-10-13T10:36:23.712Z,9.55
2022-10-13T10:39:36.572Z,9.20
2022-10-13T10:42:52.095Z,8.95
2022-10-13T10:45:57.636Z,9.07
2022-10-13T10:49:03.837Z,9.40
2022-10-13T10:52:16.393Z,9.23
2022-10-13T10:56:09.573Z,7.40
2022-10-13T10:59:29.591Z,6.55
2022-10-13T11:02:58.660Z,6.72
2022-10-13T11:06:20.845Z,6.95
2022-10-13T11:09:40.948Z,7.47
2022-10-13T11:12:45.209Z,6.72
2022-10-13T11:15:47.512Z,7.20
2022-10-13T11:18:56.857Z,7.45
2022-10-13T11:25:40.522Z,7.10
2022-10-13T11:28:42.669Z,7.35
2022-10-13T11:31:53.058Z,6.80
2022-10-13T11:35:07.861Z,7.25
2022-10-13T11:38:35.087Z,7.90
2022-10-13T11:41:48.032Z,7.35
2022-10-13T11:45:02.162Z,8.60
2022-10-13T11:48:40.042Z,7.20
2022-10-13T11:51:44.544Z,7.20
2022-10-13T11:55:02.853Z,7.32
2022-10-13T11:58:16.113Z,7.60
2022-10-13T12:04:22.752Z,8.05
2022-10-13T12:07:26.910Z,7.55
2022-10-13T12:10:33.098Z,9.18
2022-10-13T12:13:36.924Z,8.07
2022-10-13T12:16:38.522Z,8.30
2022-10-13T12:19:40.281Z,8.23
2022-10-13T12:22:48.254Z,7.32
2022-10-13T12:25:56.948Z,8.27
2022-10-13T12:29:02.868Z,7.80
2022-10-13T12:32:19.030Z,7.32
2022-10-13T12:35:26.977Z,7.45
2022-10-13T12:38:28.821Z,7.38
2022-10-13T12:41:35.470Z,7.05
2022-10-13T12:44:37.428Z,7.75
2022-10-13T12:47:44.781Z,7.97
2022-10-13T12:50:46.688Z,7.93
2022-10-13T12:53:48.663Z,8.32
2022-10-13T12:56:55.366Z,8.30
2022-10-13T12:59:58.404Z,6.82
2022-10-13T13:03:01.076Z,6.85
2022-10-13T13:06:15.075Z,6.38
2022-10-13T13:09:22.464Z,6.18
2022-10-13T13:12:27.587Z,6.15
2022-10-13T13:15:35.195Z,7.50
2022-10-13T13:18:39.734Z,6.32
2022-10-13T13:21:41.408Z,7.20
2022-10-13T13:24:43.147Z,6.25
2022-10-13T13:27:44.918Z,7.88
2022-10-13T13:30:51.001Z,9.25
2022-10-13T13:33:59.707Z,6.63
2022-10-13T13:37:02.155Z,5.95
2022-10-13T13:40:04.976Z,7.75
2022-10-13T13:43:08.084Z,6.63
2022-10-13T13:49:18.730Z,8.73
2022-10-13T13:52:21.982Z,7.45
2022-10-13T13:55:24.164Z,8.82
2022-10-13T13:58:25.785Z,7.20
2022-10-13T14:01:27.631Z,6.32
2022-10-13T14:04:29.890Z,5.72
2022-10-13T14:07:31.569Z,5.80
2022-10-13T14:10:33.440Z,7.05
2022-10-13T14:13:35.155Z,7.03
2022-10-13T14:16:36.719Z,5.95
2022-10-13T14:19:42.079Z,7.25
2022-10-13T14:25:45.609Z,6.05
2022-10-13T14:28:47.233Z,5.90
2022-10-13T14:31:48.881Z,6.68
2022-10-13T14:34:50.545Z,7.78
2022-10-13T14:37:52.119Z,8.50
2022-10-13T14:41:01.660Z,7.45
2022-10-13T14:44:03.259Z,6.80
2022-10-13T14:47:05.014Z,6.60
2022-10-13T14:50:09.235Z,7.13
2022-10-13T14:53:15.133Z,9.10
2022-10-13T14:56:22.724Z,7.38
2022-10-13T14:59:26.668Z,13.52
2022-10-13T15:02:28.241Z,7.75
2022-10-13T15:05:30.305Z,8.88
2022-10-13T15:08:31.952Z,6.80
2022-10-13T15:11:34.408Z,7.28
2022-10-13T15:14:37.290Z,7.85
2022-10-13T15:17:39.488Z,6.70
2022-10-13T15:20:46.391Z,6.90
2022-10-13T15:23:48.942Z,6.93
2022-10-13T15:26:50.646Z,7.63
2022-10-13T15:29:52.306Z,7.70
2022-10-13T15:32:53.895Z,8.32
2022-10-13T15:35:55.480Z,7.60
2022-10-13T15:38:57.043Z,8.45
2022-10-13T15:41:58.583Z,8.50
2022-10-13T15:45:15.555Z,8.35
2022-10-13T15:48:17.324Z,7.88
2022-10-13T15:51:21.557Z,7.13
2022-10-13T15:54:23.643Z,7.30
2022-10-13T15:57:25.339Z,6.60
2022-10-13T16:00:27.002Z,6.80
2022-10-13T16:03:29.839Z,7.57
2022-10-13T16:06:33.435Z,7.22
2022-10-13T16:09:35.106Z,7.00
2022-10-13T16:12:36.768Z,7.35
2022-10-13T16:15:38.382Z,8.30
2022-10-13T16:18:40.495Z,7.53
2022-10-13T16:21:42.061Z,7.60
2022-10-13T16:24:43.899Z,8.38
2022-10-13T16:27:45.481Z,9.18
2022-10-13T16:30:47.058Z,10.20
2022-10-13T16:33:48.647Z,12.70
2022-10-13T16:36:50.556Z,9.88
2022-10-13T16:39:52.297Z,10.93
2022-10-13T16:42:54.023Z,12.63
2022-10-13T16:45:59.917Z,8.73
2022-10-13T16:49:02.156Z,10.38
2022-10-13T16:52:03.793Z,13.48
2022-10-13T16:55:06.474Z,15.35
2022-10-13T16:58:08.410Z,15.48
2022-10-13T17:01:11.319Z,16.55
2022-10-13T17:04:12.965Z,14.27
2022-10-13T17:07:14.539Z,14.63
2022-10-13T17:10:16.084Z,14.02
2022-10-13T17:13:17.687Z,21.05
2022-10-13T17:16:19.949Z,15.80
2022-10-13T17:19:21.583Z,15.00
2022-10-13T17:22:24.315Z,14.63
2022-10-13T17:25:25.836Z,12.90
2022-10-13T17:28:27.619Z,12.32
2022-10-13T17:31:29.448Z,14.20
2022-10-13T17:34:31.045Z,15.88
2022-10-13T17:37:34.520Z,15.40
2022-10-13T17:40:38.046Z,15.98
2022-10-13T17:43:40.973Z,11.65
2022-10-13T17:46:43.028Z,11.27
2022-10-13T17:49:44.923Z,15.27
2022-10-13T17:52:53.346Z,14.70
2022-10-13T17:56:00.443Z,16.52
2022-10-13T17:59:02.363Z,14.70
2022-10-13T18:02:04.027Z,14.35
2022-10-13T18:05:05.845Z,14.07
2022-10-13T18:08:07.443Z,16.48
2022-10-13T18:11:13.367Z,14.07
2022-10-13T18:14:15.491Z,13.23
2022-10-13T18:17:19.714Z,13.82
2022-10-13T18:20:21.529Z,15.70
2022-10-13T18:23:26.771Z,18.77
2022-10-13T18:26:32.081Z,24.42
2022-10-13T18:29:33.658Z,21.92
2022-10-13T18:32:35.330Z,17.48
2022-10-13T18:35:36.940Z,21.65
2022-10-13T18:38:38.617Z,17.02
2022-10-13T18:41:40.635Z,15.93
2022-10-13T18:44:42.171Z,16.75
2022-10-13T18:47:43.797Z,16.52
2022-10-13T18:50:45.308Z,19.08
2022-10-13T18:53:48.579Z,17.58
2022-10-13T18:56:51.046Z,16.65
2022-10-13T18:59:52.658Z,15.88
2022-10-13T19:03:03.841Z,16.80
2022-10-13T19:06:07.913Z,15.90
2022-10-13T19:09:13.311Z,16.27
2022-10-13T19:12:14.858Z,16.17
2022-10-13T19:15:16.425Z,16.92
2022-10-13T19:18:17.997Z,16.20
2022-10-13T19:21:21.950Z,16.58
2022-10-13T19:24:23.730Z,15.00
2022-10-13T19:27:25.320Z,16.52
2022-10-13T19:30:28.006Z,19.40
2022-10-13T19:33:29.722Z,19.05
2022-10-13T19:36:43.365Z,17.92
2022-10-13T19:39:45.061Z,17.80
2022-10-13T19:42:47.451Z,17.48
2022-10-13T19:45:56.242Z,18.80
2022-10-13T19:49:01.755Z,16.63
2022-10-13T19:52:03.501Z,15.70
2022-10-13T19:55:05.461Z,18.85
2022-10-13T19:58:07.104Z,16.08
2022-10-13T20:01:08.669Z,16.65
2022-10-13T20:04:10.735Z,16.40
2022-10-13T20:07:15.340Z,14.15
2022-10-13T20:10:16.968Z,12.05
2022-10-13T20:13:18.525Z,11.50
2022-10-13T20:16:24.230Z,12.85
2022-10-13T20:19:26.029Z,10.88
2022-10-13T20:22:27.581Z,10.27
2022-10-13T20:25:29.182Z,11.73
2022-10-13T20:28:30.958Z,10.02
2022-10-13T20:31:32.766Z,9.93
2022-10-13T20:34:34.411Z,9.48
2022-10-13T20:37:36.185Z,9.48
2022-10-13T20:40:37.918Z,8.90
2022-10-13T20:43:39.577Z,9.13
2022-10-13T20:46:41.357Z,9.07
2022-10-13T20:49:42.938Z,10.15
2022-10-13T20:52:44.682Z,8.63
2022-10-13T20:55:56.068Z,8.95
2022-10-13T20:59:03.476Z,9.48
2022-10-13T21:02:05.049Z,9.13
2022-10-13T21:05:06.877Z,9.75
2022-10-13T21:08:09.225Z,9.95
2022-10-13T21:11:13.435Z,9.52
2022-10-13T21:14:15.011Z,8.70
2022-10-13T21:17:16.634Z,7.50
2022-10-13T21:20:18.190Z,8.57
2022-10-13T21:23:19.756Z,7.60
2022-10-13T21:26:22.470Z,8.82
2022-10-13T21:29:24.371Z,7.90
2022-10-13T21:32:25.920Z,8.02
2022-10-13T21:35:27.506Z,8.35
2022-10-13T21:38:29.056Z,8.32
2022-10-13T21:41:30.707Z,8.35
2022-10-13T21:44:32.409Z,8.13
2022-10-13T21:47:35.530Z,9.43
2022-10-13T21:50:37.096Z,8.32
2022-10-13T21:53:38.660Z,9.77
2022-10-13T21:56:41.183Z,9.63
2022-10-13T21:59:42.860Z,9.63
2022-10-13T22:02:45.082Z,9.90
2022-10-13T22:05:46.933Z,9.68
2022-10-13T22:08:51.173Z,10.25
2022-10-13T22:11:56.601Z,10.98
2022-10-13T22:14:58.380Z,9.93
2022-10-13T22:17:59.973Z,10.82
2022-10-13T22:21:03.817Z,11.00
2022-10-13T22:24:07.202Z,11.57
2022-10-13T22:27:08.802Z,11.40
2022-10-13T22:30:10.845Z,12.52
2022-10-13T22:33:12.485Z,11.77
2022-10-13T22:36:18.984Z,10.52
2022-10-13T22:39:21.080Z,11.77
2022-10-13T22:42:27.934Z,11.77
2022-10-13T22:45:29.507Z,11.73
2022-10-13T22:48:34.751Z,11.77
2022-10-13T22:51:38.955Z,11.20
2022-10-13T22:54:40.519Z,12.65
2022-10-13T22:57:42.138Z,11.18
2022-10-13T23:00:43.723Z,10.73
2022-10-13T23:03:50.767Z,11.48
2022-10-13T23:06:52.401Z,10.75
2022-10-13T23:09:53.958Z,11.15
2022-10-13T23:12:55.607Z,10.45
2022-10-13T23:16:09.542Z,10.65
2022-10-13T23:19:12.150Z,9.48
2022-10-13T23:22:13.780Z,9.73
2022-10-13T23:25:15.544Z,10.55
2022-10-13T23:28:17.128Z,10.13
2022-10-13T23:31:18.780Z,10.57
2022-10-13T23:34:20.332Z,10.02
2022-10-13T23:37:22.203Z,9.82
2022-10-13T23:40:24.075Z,10.40
2022-10-13T23:43:25.635Z,9.75
2022-10-13T23:46:27.736Z,10.50
2022-10-13T23:49:29.333Z,9.98
2022-10-13T23:52:30.934Z,10.32
2022-10-13T23:55:32.640Z,9.82
2022-10-13T23:58:39.193Z,10.88
